14 Nisan 2013, Pazar 11:08:14

DÜŞEN UÇAĞIN KARA KUTUSUNA ULAŞILDI

Endonezya'nın turistik Bali adasında iniş sırasında denize düşen yolcu uçağının karakutusuna ulaşıldı.
  • Düşen uçak demiyelim. Adam serinlemek istemiş
  • WADD 130730Z 15006KT 110V270 9999 FEW017CB SCT017 30/25 Q1007 NOSIG WADD 130700Z 09006KT 9999 BKN017 30/26 Q1007 NOSIG buyrun METAR lar, gördügünüz gibi görüş sıkıntısı yok (minimum 10 km görüş açık), windshear rapor edilmemis (bu yok demek degildir her zaman olabilir), rüzgar sadece 6 knot. eger gercekten windshearsa guzel bir airbus vs boeing tartismasi bizleri bekliyor demektir..
  • uzman threegreen denen arkadaşın işi gücü yapılan diğer yorumlara yorum yapmaktan ibaret,haberle ilgili olumlu ya da yapıcı bir yorum yaptığını görmedik daha,kendisi ne işle meşgul olduğunu bir söylerse çok iyi olur,astoronot falan mı merak ediyoruz...
  • bunlarıda pilot diye uçuranınnnnn...................
  • SONUCU AKTARIYORUM ŞİDDETLİ RÜZGAR YAĞIŞ DÜŞÜK GÖRÜŞ WİNDSHEAR NEDENİYLE UÇAK DÜŞMÜŞTÜR BİGİLERİNİZE SUNULUR
  • pilotlar araklamışdır ses kayıt cihazını hatalılar ya :D fazla aramayın yağğni
  • Ne ariyorsun koltuk dugmesimi yeri belli uçak ortada
  • sanki okyanusun 1000 nt dibine düştü uçak:) yerini bilmiyorlar herhalde
  • İyide bu cihazların standart belli bir yeri yokmu nesini arıyorlar

Ulaştırma Bakanlığı Sözcüsü Bambang Ervan yaptığı açıklamada, karakutunun uçuş verilerinin kaydedildiği kısmının bulunduğunu, şimdi de kokpit içi sesleri kaydeden cihazı bulmaya çalıştıklarını söyledi.

Ervan, soruşturma çerçevesinde pilotların kanındaki ilaç miktarına da bakılacağını kaydetti.

Endonezya'nın turistik Bali adasında dün iniş sırasında denize düşen yolcu uçağında 45 kişi yaralanmıştı. Uçakta 101 yolcu ve 7 kişilik mürettebat bulunuyordu.

Kazanın nedeniyle ilgili ilk açıklamalarda, uçağın pisti ıskalayarak denize düştüğü belirtmişti.

Lion Air havayolu şirketi sözcüsü Edward Sirait ise uçağın piste gelmeden önce suya düştüğünü ifade ederek, havanın iniş sırasında bulutlu ve hafif yağmurlu olduğundan bahsetmişti. 

DÜŞEN UÇAĞIN KARA KUTUSUNA ULAŞILDI

Facebook Yorum

Yorumlar Tüm Yorumlar (12)

37 ~ 9 yıl önce
Düşen uçak demiyelim. Adam serinlemek istemiş

Yanıtla

Kalan karakter 1000
thregreen ~ 9 yıl önce
WADD 130730Z 15006KT 110V270 9999 FEW017CB SCT017 30/25 Q1007 NOSIG WADD 130700Z 09006KT 9999 BKN017 30/26 Q1007 NOSIG buyrun METAR lar, gördügünüz gibi görüş sıkıntısı yok (minimum 10 km görüş açık), windshear rapor edilmemis (bu yok demek degildir her zaman olabilir), rüzgar sadece 6 knot. eger gercekten windshearsa guzel bir airbus vs boeing tartismasi bizleri bekliyor demektir..

Yanıtla

Kalan karakter 1000
... ~ 9 yıl önce
uzman threegreen denen arkadaşın işi gücü yapılan diğer yorumlara yorum yapmaktan ibaret,haberle ilgili olumlu ya da yapıcı bir yorum yaptığını görmedik daha,kendisi ne işle meşgul olduğunu bir söylerse çok iyi olur,astoronot falan mı merak ediyoruz...

Yanıtla

Kalan karakter 1000
threegreen ~ 9 yıl önce
ben olumlu veye olumsuz bir yorum yapmadım. bu kanıya vardığına göre elinde hava durumu ile ilgili veri olduğunu düşündüm ve onlari rica ettim. elimde herhangi bir veri olmadan yorum yapma şansım olmadığı için yorum yapamıyorum. diğer bölümlerde de 738e 35 flapla inmesi gerek diyen yorumcuların yorumlarıyla tabi ki dalga geçerim. eger hava durumu ile alakalı yorumu yapan sizseniz lütfen METAR paylaşınız bende yorumunuza katılıp katılmadığımı bildireyim. yorum yapmam için data gerekiyor.
dc3 ~ 9 yıl önce
bunlarıda pilot diye uçuranınnnnn...................

Yanıtla

Kalan karakter 1000
CRM ~ 9 yıl önce
SONUCU AKTARIYORUM ŞİDDETLİ RÜZGAR YAĞIŞ DÜŞÜK GÖRÜŞ WİNDSHEAR NEDENİYLE UÇAK DÜŞMÜŞTÜR BİGİLERİNİZE SUNULUR

Yanıtla

Kalan karakter 1000
threegreen ~ 9 yıl önce
mümkünse METAR koyarmısınız buraya, bu kanıya vardiginiza gore elinizde METAR vardır diye tahmin ediyorum?
dc3 ~ 9 yıl önce
pilotlar araklamışdır ses kayıt cihazını hatalılar ya :D fazla aramayın yağğni

Yanıtla

Kalan karakter 1000
21:09:29 e ~ 9 yıl önce
bu arkadaş çakmadır..itibar etmeyiniz
Sacma ~ 9 yıl önce
Ne ariyorsun koltuk dugmesimi yeri belli uçak ortada

Yanıtla

Kalan karakter 1000
yuh ~ 9 yıl önce
sanki okyanusun 1000 nt dibine düştü uçak:) yerini bilmiyorlar herhalde

Yanıtla

Kalan karakter 1000
737 ~ 9 yıl önce
İyide bu cihazların standart belli bir yeri yokmu nesini arıyorlar

Yanıtla

Kalan karakter 1000

Yorum Gönder

Kalan karakter 1000